createdAt,value
2022-11-20T00:00:28.599Z,11.30
2022-11-20T00:01:28.554Z,11.90
2022-11-20T00:02:28.595Z,11.50
2022-11-20T00:03:28.535Z,11.70
2022-11-20T00:04:28.539Z,11.20
2022-11-20T00:05:28.521Z,11.50
2022-11-20T00:06:28.529Z,11.50
2022-11-20T00:07:28.557Z,11.40
2022-11-20T00:08:28.523Z,11.80
2022-11-20T00:09:28.465Z,11.40
2022-11-20T00:10:28.459Z,11.00
2022-11-20T00:11:28.450Z,11.20
2022-11-20T00:12:28.438Z,10.60
2022-11-20T00:13:28.401Z,10.20
2022-11-20T00:14:28.411Z,10.40
2022-11-20T00:15:28.371Z,10.40
2022-11-20T00:16:28.391Z,10.00
2022-11-20T00:17:28.370Z,10.10
2022-11-20T00:18:28.387Z,10.20
2022-11-20T00:19:28.327Z,10.50
2022-11-20T00:20:28.339Z,9.60
2022-11-20T00:21:28.305Z,9.40
2022-11-20T00:22:28.318Z,9.60
2022-11-20T00:23:28.302Z,10.30
2022-11-20T00:24:28.283Z,9.20
2022-11-20T00:25:28.239Z,9.80
2022-11-20T00:26:28.267Z,10.00
2022-11-20T00:27:28.215Z,9.70
2022-11-20T00:28:28.241Z,9.70
2022-11-20T00:29:28.218Z,9.40
2022-11-20T00:30:28.196Z,10.20
2022-11-20T00:31:28.180Z,9.70
2022-11-20T00:32:28.189Z,9.70
2022-11-20T00:33:28.153Z,9.90
2022-11-20T00:34:28.165Z,10.40
2022-11-20T00:35:28.113Z,10.00
2022-11-20T00:36:28.164Z,10.00
2022-11-20T00:37:28.081Z,9.50
2022-11-20T00:38:28.100Z,9.50
2022-11-20T00:39:28.072Z,9.50
2022-11-20T00:40:28.094Z,9.90
2022-11-20T00:41:28.060Z,10.50
2022-11-20T00:42:28.073Z,10.10
2022-11-20T00:43:28.011Z,10.20
2022-11-20T00:44:28.026Z,10.40
2022-11-20T00:45:28.031Z,9.90
2022-11-20T00:46:27.994Z,11.10
2022-11-20T00:47:27.993Z,10.70
2022-11-20T00:48:39.778Z,10.10
2022-11-20T00:49:27.975Z,10.00
2022-11-20T00:50:27.933Z,10.40
2022-11-20T00:51:27.929Z,9.90
2022-11-20T00:52:27.910Z,10.50
2022-11-20T00:53:27.869Z,11.20
2022-11-20T00:54:27.891Z,11.00
2022-11-20T00:55:27.843Z,10.50
2022-11-20T00:56:27.888Z,11.20
2022-11-20T00:57:27.824Z,10.80
2022-11-20T00:58:27.834Z,10.90
2022-11-20T00:59:27.821Z,11.30
2022-11-20T01:00:27.799Z,11.10
2022-11-20T01:01:27.893Z,10.90
2022-11-20T01:02:27.805Z,11.50
2022-11-20T01:03:27.741Z,12.10
2022-11-20T01:04:27.763Z,11.60
2022-11-20T01:05:27.718Z,10.70
2022-11-20T01:06:27.724Z,10.80
2022-11-20T01:07:27.756Z,11.50
2022-11-20T01:08:27.716Z,12.00
2022-11-20T01:09:27.695Z,11.80
2022-11-20T01:10:27.691Z,11.30
2022-11-20T01:11:27.663Z,10.70
2022-11-20T01:12:27.644Z,11.70
2022-11-20T01:13:27.610Z,11.10
2022-11-20T01:14:27.636Z,11.70
2022-11-20T01:15:27.632Z,11.80
2022-11-20T01:16:27.593Z,11.70
2022-11-20T01:17:27.590Z,12.20
2022-11-20T01:18:27.596Z,11.80
2022-11-20T01:19:27.528Z,11.80
2022-11-20T01:20:27.542Z,12.00
2022-11-20T01:21:27.511Z,11.70
2022-11-20T01:22:27.549Z,11.40
2022-11-20T01:23:27.501Z,12.10
2022-11-20T01:24:27.490Z,12.30
2022-11-20T01:25:27.448Z,12.60
2022-11-20T01:26:27.467Z,12.30
2022-11-20T01:27:27.464Z,11.20
2022-11-20T01:28:27.449Z,11.70
2022-11-20T01:29:27.403Z,11.90
2022-11-20T01:30:27.417Z,12.10
2022-11-20T01:31:27.371Z,11.70
2022-11-20T01:32:27.405Z,11.10
2022-11-20T01:33:27.350Z,8.50
2022-11-20T01:34:27.373Z,9.60
2022-11-20T01:35:27.319Z,8.80
2022-11-20T01:36:27.356Z,9.10
2022-11-20T01:37:27.302Z,8.30
2022-11-20T01:38:27.322Z,7.60
2022-11-20T01:39:27.270Z,8.10
2022-11-20T01:40:27.308Z,7.40
2022-11-20T01:41:27.273Z,7.60
2022-11-20T01:42:27.248Z,7.10
2022-11-20T01:43:27.245Z,6.80
2022-11-20T01:44:27.229Z,7.00
2022-11-20T01:45:27.198Z,6.40
2022-11-20T01:46:27.219Z,8.00
2022-11-20T01:47:27.171Z,6.80
2022-11-20T01:48:27.186Z,6.90
2022-11-20T01:49:27.144Z,7.30
2022-11-20T01:50:27.183Z,6.70
2022-11-20T01:51:27.142Z,6.80
2022-11-20T01:52:27.119Z,7.40
2022-11-20T01:53:27.087Z,7.00
2022-11-20T01:54:27.120Z,7.30
2022-11-20T01:55:27.085Z,7.50
2022-11-20T01:56:27.079Z,6.80
2022-11-20T01:57:27.056Z,6.70
2022-11-20T01:58:27.065Z,6.80
2022-11-20T01:59:27.008Z,6.90
2022-11-20T02:00:27.824Z,6.70
2022-11-20T02:01:27.117Z,6.70
2022-11-20T02:02:27.027Z,6.90
2022-11-20T02:03:26.967Z,6.90
2022-11-20T02:04:26.970Z,7.40
2022-11-20T02:05:26.931Z,7.50
2022-11-20T02:06:26.945Z,7.70
2022-11-20T02:07:26.942Z,7.80
2022-11-20T02:08:26.954Z,7.60
2022-11-20T02:09:26.895Z,7.50
2022-11-20T02:10:26.889Z,7.50
2022-11-20T02:11:26.869Z,7.70
2022-11-20T02:12:26.868Z,7.60
2022-11-20T02:13:26.850Z,7.70
2022-11-20T02:14:26.866Z,7.20
2022-11-20T02:15:30.228Z,7.90
2022-11-20T02:16:26.818Z,7.40
2022-11-20T02:17:26.776Z,7.50
2022-11-20T02:18:26.814Z,6.90
2022-11-20T02:19:26.779Z,7.00
2022-11-20T02:20:26.764Z,7.30
2022-11-20T02:21:26.743Z,7.40
2022-11-20T02:22:26.764Z,7.10
2022-11-20T02:23:26.716Z,6.80
2022-11-20T02:24:26.717Z,7.20
2022-11-20T02:25:26.673Z,6.60
2022-11-20T02:26:26.713Z,6.60
2022-11-20T02:27:26.687Z,7.10
2022-11-20T02:28:26.629Z,6.70
2022-11-20T02:29:26.684Z,6.60
2022-11-20T02:30:26.622Z,7.00
2022-11-20T02:31:26.625Z,6.40
2022-11-20T02:32:26.583Z,7.50
2022-11-20T02:33:26.596Z,6.80
2022-11-20T02:34:26.580Z,6.60
2022-11-20T02:35:26.570Z,7.20
2022-11-20T02:36:26.527Z,7.30
2022-11-20T02:37:26.550Z,7.20
2022-11-20T02:38:26.504Z,6.70
2022-11-20T02:39:26.564Z,7.70
2022-11-20T02:40:26.476Z,7.10
2022-11-20T02:41:26.521Z,7.70
2022-11-20T02:42:26.458Z,6.70
2022-11-20T02:43:26.492Z,6.60
2022-11-20T02:44:26.440Z,7.00
2022-11-20T02:45:26.454Z,6.80
2022-11-20T02:46:26.429Z,7.50
2022-11-20T02:47:26.417Z,7.50
2022-11-20T02:48:29.105Z,6.60
2022-11-20T02:49:26.395Z,7.00
2022-11-20T02:50:26.354Z,7.30
2022-11-20T02:51:26.365Z,6.80
2022-11-20T02:52:26.327Z,7.20
2022-11-20T02:53:26.354Z,6.60
2022-11-20T02:54:26.294Z,6.90
2022-11-20T02:55:26.309Z,6.40
2022-11-20T02:56:26.260Z,6.90
2022-11-20T02:57:26.274Z,6.70
2022-11-20T02:58:26.264Z,7.40
2022-11-20T02:59:26.295Z,7.40
2022-11-20T03:00:26.215Z,7.10
2022-11-20T03:01:26.297Z,10.50
2022-11-20T03:02:26.202Z,7.30
2022-11-20T03:03:26.196Z,7.10
2022-11-20T03:04:26.269Z,6.90
2022-11-20T03:05:26.208Z,6.50
2022-11-20T03:06:26.140Z,6.80
2022-11-20T03:07:26.164Z,6.10
2022-11-20T03:08:26.127Z,6.60
2022-11-20T03:09:26.125Z,7.60
2022-11-20T03:10:26.106Z,7.60
2022-11-20T03:11:26.107Z,6.50
2022-11-20T03:12:26.077Z,6.40
2022-11-20T03:13:26.086Z,6.30
2022-11-20T03:14:26.099Z,6.20
2022-11-20T03:15:26.086Z,6.70
2022-11-20T03:16:26.009Z,6.30
2022-11-20T03:17:26.022Z,6.50
2022-11-20T03:18:26.016Z,6.10
2022-11-20T03:19:26.037Z,6.50
2022-11-20T03:20:25.971Z,6.60
2022-11-20T03:21:25.990Z,6.10
2022-11-20T03:22:25.942Z,6.70
2022-11-20T03:23:25.971Z,5.70
2022-11-20T03:24:25.941Z,6.00
2022-11-20T03:25:25.922Z,5.60
2022-11-20T03:26:25.913Z,6.80
2022-11-20T03:27:25.910Z,5.90
2022-11-20T03:28:25.871Z,6.10
2022-11-20T03:29:25.900Z,5.80
2022-11-20T03:30:30.378Z,5.70
2022-11-20T03:31:25.845Z,5.70
2022-11-20T03:32:25.830Z,6.10
2022-11-20T03:33:25.823Z,6.10
2022-11-20T03:34:25.795Z,5.70
2022-11-20T03:35:25.786Z,5.50
2022-11-20T03:36:25.757Z,5.70
2022-11-20T03:37:25.788Z,5.80
2022-11-20T03:38:25.735Z,6.00
2022-11-20T03:39:25.796Z,6.00
2022-11-20T03:40:25.718Z,5.60
2022-11-20T03:41:25.720Z,5.30
2022-11-20T03:42:25.692Z,6.40
2022-11-20T03:43:25.689Z,5.90
2022-11-20T03:44:25.651Z,5.50
2022-11-20T03:45:25.661Z,5.70
2022-11-20T03:46:25.622Z,5.30
2022-11-20T03:47:25.668Z,6.20
2022-11-20T03:48:25.614Z,5.50
2022-11-20T03:49:25.676Z,5.80
2022-11-20T03:50:25.599Z,5.40
2022-11-20T03:51:25.598Z,5.80
2022-11-20T03:52:25.546Z,5.60
2022-11-20T03:53:25.586Z,5.20
2022-11-20T03:54:25.591Z,5.80
2022-11-20T03:55:25.546Z,6.10
2022-11-20T03:56:25.492Z,5.70
2022-11-20T03:57:25.502Z,5.80
2022-11-20T03:58:25.469Z,5.10
2022-11-20T03:59:25.487Z,5.80
2022-11-20T04:00:25.469Z,5.40
2022-11-20T04:01:25.511Z,5.40
2022-11-20T04:02:25.423Z,5.00
2022-11-20T04:03:25.424Z,5.60
2022-11-20T04:04:25.393Z,5.90
2022-11-20T04:05:25.429Z,5.40
2022-11-20T04:06:25.379Z,4.90
2022-11-20T04:07:25.398Z,5.40
2022-11-20T04:08:25.328Z,5.40
2022-11-20T04:09:25.369Z,5.00
2022-11-20T04:10:25.360Z,5.20
2022-11-20T04:11:25.337Z,5.40
2022-11-20T04:12:25.313Z,5.70
2022-11-20T04:13:25.290Z,5.70
2022-11-20T04:14:25.277Z,5.80
2022-11-20T04:15:25.290Z,5.80
2022-11-20T04:16:25.241Z,7.40
2022-11-20T04:17:25.248Z,5.00
2022-11-20T04:18:25.201Z,5.70
2022-11-20T04:19:25.260Z,5.20
2022-11-20T04:20:25.223Z,5.00
2022-11-20T04:21:25.206Z,5.30
2022-11-20T04:22:25.169Z,5.60
2022-11-20T04:23:28.699Z,5.30
2022-11-20T04:24:25.198Z,5.50
2022-11-20T04:25:25.141Z,5.90
2022-11-20T04:26:25.133Z,5.00
2022-11-20T04:27:25.131Z,5.70
2022-11-20T04:28:25.082Z,5.50
2022-11-20T04:29:25.092Z,5.70
2022-11-20T04:30:25.063Z,5.40
2022-11-20T04:31:25.075Z,5.20
2022-11-20T04:32:25.051Z,5.00
2022-11-20T04:33:25.836Z,5.40
2022-11-20T04:34:25.014Z,5.70
2022-11-20T04:35:25.025Z,5.10
2022-11-20T04:36:24.987Z,5.10
2022-11-20T04:37:25.018Z,5.20
2022-11-20T04:38:24.946Z,4.10
2022-11-20T04:39:25.084Z,5.50
2022-11-20T04:40:24.942Z,5.50
2022-11-20T04:41:24.946Z,5.00
2022-11-20T04:42:24.900Z,5.10
2022-11-20T04:43:24.942Z,5.00
2022-11-20T04:44:24.876Z,5.00
2022-11-20T04:45:24.918Z,4.90
2022-11-20T04:46:24.882Z,5.20
2022-11-20T04:47:24.862Z,5.50
2022-11-20T04:48:24.827Z,5.40
2022-11-20T04:49:25.090Z,5.50
2022-11-20T04:50:24.807Z,5.40
2022-11-20T04:51:24.815Z,5.40
2022-11-20T04:52:24.776Z,5.40
2022-11-20T04:53:24.789Z,5.40
2022-11-20T04:54:24.779Z,5.30
2022-11-20T04:55:24.759Z,4.50
2022-11-20T04:56:24.714Z,4.90
2022-11-20T04:57:24.729Z,5.20
2022-11-20T04:58:24.704Z,5.30
2022-11-20T04:59:24.742Z,5.10
2022-11-20T05:00:24.672Z,5.00
2022-11-20T05:01:24.764Z,4.80
2022-11-20T05:02:24.637Z,5.10
2022-11-20T05:03:24.657Z,4.30
2022-11-20T05:04:24.643Z,5.60
2022-11-20T05:05:24.632Z,5.50
2022-11-20T05:06:24.587Z,4.30
2022-11-20T05:07:24.645Z,7.70
2022-11-20T05:08:24.562Z,14.10
2022-11-20T05:09:24.627Z,12.40
2022-11-20T05:10:24.538Z,7.10
2022-11-20T05:11:24.544Z,9.80
2022-11-20T05:12:24.512Z,6.90
2022-11-20T05:13:24.546Z,12.80
2022-11-20T05:14:24.482Z,8.30
2022-11-20T05:15:24.501Z,5.00
2022-11-20T05:16:24.480Z,4.30
2022-11-20T05:17:24.479Z,5.10
2022-11-20T05:18:24.440Z,5.40
2022-11-20T05:19:24.453Z,5.00
2022-11-20T05:20:24.412Z,5.70
2022-11-20T05:21:24.434Z,5.00
2022-11-20T05:22:24.386Z,5.10
2022-11-20T05:23:24.390Z,4.90
2022-11-20T05:24:24.356Z,5.00
2022-11-20T05:25:24.390Z,4.80
2022-11-20T05:26:24.339Z,5.00
2022-11-20T05:27:24.341Z,5.10
2022-11-20T05:28:24.577Z,4.40
2022-11-20T05:29:24.321Z,4.70
2022-11-20T05:30:24.287Z,4.20
2022-11-20T05:31:27.803Z,4.70
2022-11-20T05:32:24.255Z,4.40
2022-11-20T05:33:24.260Z,4.70
2022-11-20T05:34:24.240Z,4.70
2022-11-20T05:35:24.239Z,4.30
2022-11-20T05:36:24.206Z,3.70
2022-11-20T05:37:24.218Z,4.70
2022-11-20T05:38:24.179Z,4.30
2022-11-20T05:39:24.452Z,4.70
2022-11-20T05:40:24.152Z,4.80
2022-11-20T05:41:24.159Z,4.40
2022-11-20T05:42:24.134Z,4.50
2022-11-20T05:43:24.132Z,4.70
2022-11-20T05:44:24.120Z,4.10
2022-11-20T05:45:24.110Z,4.50
2022-11-20T05:46:28.122Z,4.40
2022-11-20T05:47:24.075Z,4.80
2022-11-20T05:48:24.041Z,4.80
2022-11-20T05:49:24.119Z,4.20
2022-11-20T05:50:24.028Z,4.30
2022-11-20T05:51:24.035Z,4.50
2022-11-20T05:52:24.005Z,4.40
2022-11-20T05:53:27.404Z,4.30
2022-11-20T05:54:23.996Z,4.80
2022-11-20T05:55:23.989Z,4.50
2022-11-20T05:56:23.942Z,4.40
2022-11-20T05:57:23.955Z,4.20
2022-11-20T05:58:23.918Z,4.30
2022-11-20T05:59:24.182Z,4.50
2022-11-20T06:00:23.895Z,4.10
2022-11-20T06:01:23.952Z,3.80
2022-11-20T06:02:23.886Z,4.40
2022-11-20T06:03:23.900Z,4.50
2022-11-20T06:04:23.844Z,3.90
2022-11-20T06:05:23.864Z,4.10
2022-11-20T06:06:23.842Z,4.60
2022-11-20T06:07:23.842Z,4.60
2022-11-20T06:08:23.786Z,4.10
2022-11-20T06:09:24.005Z,4.30
2022-11-20T06:10:23.782Z,3.90
2022-11-20T06:11:23.785Z,4.50
2022-11-20T06:12:23.749Z,4.00
2022-11-20T06:13:23.751Z,3.80
2022-11-20T06:14:23.715Z,4.00
2022-11-20T06:15:23.732Z,4.20
2022-11-20T06:16:23.704Z,4.00
2022-11-20T06:17:23.722Z,4.30
2022-11-20T06:18:23.659Z,3.90
2022-11-20T06:19:23.948Z,3.80
2022-11-20T06:20:23.640Z,4.10
2022-11-20T06:21:23.651Z,4.00
2022-11-20T06:22:23.611Z,4.50
2022-11-20T06:23:23.620Z,3.60
2022-11-20T06:24:23.610Z,3.60
2022-11-20T06:25:23.602Z,4.00
2022-11-20T06:26:23.560Z,3.90
2022-11-20T06:27:23.577Z,3.60
2022-11-20T06:28:23.540Z,3.90
2022-11-20T06:29:23.882Z,4.10
2022-11-20T06:30:23.509Z,3.30
2022-11-20T06:31:23.519Z,3.60
2022-11-20T06:32:23.501Z,3.40
2022-11-20T06:33:23.526Z,3.60
2022-11-20T06:34:23.454Z,3.60
2022-11-20T06:35:23.489Z,3.30
2022-11-20T06:36:23.420Z,3.70
2022-11-20T06:37:23.477Z,3.30
2022-11-20T06:38:23.405Z,3.40
2022-11-20T06:39:23.654Z,3.20
2022-11-20T06:40:23.381Z,3.20
2022-11-20T06:41:23.394Z,3.40
2022-11-20T06:42:23.386Z,3.40
2022-11-20T06:43:23.362Z,3.30
2022-11-20T06:44:23.370Z,3.60
2022-11-20T06:45:23.314Z,3.50
2022-11-20T06:46:23.344Z,3.40
2022-11-20T06:47:23.291Z,3.40
2022-11-20T06:48:23.297Z,3.50
2022-11-20T06:49:23.633Z,3.30
2022-11-20T06:50:23.293Z,3.70
2022-11-20T06:51:23.225Z,3.60
2022-11-20T06:52:23.277Z,3.60
2022-11-20T06:53:23.207Z,3.70
2022-11-20T06:54:23.235Z,3.80
2022-11-20T06:55:23.201Z,3.80
2022-11-20T06:56:23.214Z,3.40
2022-11-20T06:57:23.180Z,3.80
2022-11-20T06:58:23.213Z,3.60
2022-11-20T06:59:23.450Z,3.60
2022-11-20T07:00:23.144Z,3.60
2022-11-20T07:01:23.137Z,3.60
2022-11-20T07:02:23.116Z,3.60
2022-11-20T07:03:23.107Z,3.60
2022-11-20T07:04:23.084Z,3.20
2022-11-20T07:05:23.077Z,3.40
2022-11-20T07:06:23.079Z,3.70
2022-11-20T07:07:23.081Z,3.90
2022-11-20T07:08:23.045Z,3.60
2022-11-20T07:09:23.448Z,3.40
2022-11-20T07:10:23.002Z,3.30
2022-11-20T07:11:22.969Z,3.50
2022-11-20T07:12:22.983Z,3.40
2022-11-20T07:13:22.946Z,3.40
2022-11-20T07:14:22.992Z,3.40
2022-11-20T07:15:22.944Z,3.70
2022-11-20T07:16:22.933Z,3.90
2022-11-20T07:17:22.916Z,3.40
2022-11-20T07:18:22.923Z,3.60
2022-11-20T07:19:23.145Z,4.00
2022-11-20T07:20:22.896Z,4.10
2022-11-20T07:21:22.852Z,3.50
2022-11-20T07:22:22.869Z,4.00
2022-11-20T07:23:22.846Z,3.70
2022-11-20T07:24:22.859Z,4.30
2022-11-20T07:25:22.810Z,4.00
2022-11-20T07:26:22.807Z,4.30
2022-11-20T07:27:22.754Z,5.50
2022-11-20T07:28:22.808Z,6.80
2022-11-20T07:29:23.012Z,10.00
2022-11-20T07:30:22.757Z,14.40
2022-11-20T07:31:22.726Z,12.00
2022-11-20T07:32:22.721Z,8.80
2022-11-20T07:33:22.707Z,7.10
2022-11-20T07:34:22.692Z,8.00
2022-11-20T07:35:22.669Z,6.70
2022-11-20T07:36:22.681Z,6.80
2022-11-20T07:37:22.695Z,7.90
2022-11-20T07:38:22.649Z,6.10
2022-11-20T07:39:22.839Z,5.10
2022-11-20T07:40:22.644Z,6.00
2022-11-20T07:41:22.588Z,9.60
2022-11-20T07:42:22.591Z,9.50
2022-11-20T07:43:22.572Z,13.40
2022-11-20T07:44:22.573Z,10.10
2022-11-20T07:45:22.536Z,7.10
2022-11-20T07:46:22.576Z,6.70
2022-11-20T07:47:22.500Z,6.10
2022-11-20T07:48:22.512Z,11.40
2022-11-20T07:49:22.728Z,9.60
2022-11-20T07:50:22.511Z,11.80
2022-11-20T07:51:22.474Z,9.20
2022-11-20T07:52:22.463Z,4.60
2022-11-20T07:53:22.429Z,10.00
2022-11-20T07:54:22.461Z,8.60
2022-11-20T07:55:22.482Z,8.20
2022-11-20T07:56:22.422Z,8.00
2022-11-20T07:57:27.110Z,7.00
2022-11-20T07:58:22.395Z,8.10
2022-11-20T07:59:22.625Z,5.30
2022-11-20T08:00:22.353Z,7.30
2022-11-20T08:01:22.445Z,5.60
2022-11-20T08:02:22.345Z,6.60
2022-11-20T08:03:25.195Z,8.50
2022-11-20T08:04:22.348Z,7.70
2022-11-20T08:05:22.287Z,14.80
2022-11-20T08:06:22.291Z,22.00
2022-11-20T08:07:22.274Z,17.10
2022-11-20T08:08:22.286Z,7.50
2022-11-20T08:09:22.483Z,10.60
2022-11-20T08:10:22.240Z,10.30
2022-11-20T08:11:22.198Z,10.40
2022-11-20T08:12:22.210Z,7.70
2022-11-20T08:13:22.207Z,10.80
2022-11-20T08:14:22.182Z,8.50
2022-11-20T08:15:22.175Z,8.00
2022-11-20T08:16:22.166Z,9.70
2022-11-20T08:17:22.129Z,8.00
2022-11-20T08:18:37.459Z,9.50
2022-11-20T08:19:22.509Z,10.10
2022-11-20T08:20:22.115Z,8.30
2022-11-20T08:21:22.068Z,7.70
2022-11-20T08:22:22.096Z,8.50
2022-11-20T08:23:22.035Z,8.80
2022-11-20T08:24:22.084Z,8.60
2022-11-20T08:25:22.023Z,10.10
2022-11-20T08:26:22.065Z,8.60
2022-11-20T08:27:22.002Z,9.40
2022-11-20T08:28:22.662Z,10.80
2022-11-20T08:29:22.433Z,8.60
2022-11-20T08:30:21.980Z,8.80
2022-11-20T08:31:21.973Z,6.40
2022-11-20T08:32:21.956Z,7.90
2022-11-20T08:33:21.916Z,7.50
2022-11-20T08:34:21.920Z,8.20
2022-11-20T08:35:21.897Z,6.30
2022-11-20T08:36:21.927Z,6.70
2022-11-20T08:37:21.881Z,6.60
2022-11-20T08:38:21.873Z,7.30
2022-11-20T08:39:22.206Z,7.10
2022-11-20T08:40:21.896Z,7.20
2022-11-20T08:41:21.831Z,7.20
2022-11-20T08:42:21.828Z,6.40
2022-11-20T08:43:21.800Z,6.40
2022-11-20T08:44:21.787Z,7.30
2022-11-20T08:45:21.750Z,7.40
2022-11-20T08:46:21.808Z,6.60
2022-11-20T08:47:21.727Z,7.00
2022-11-20T08:48:21.740Z,7.30
2022-11-20T08:49:22.084Z,7.30
2022-11-20T08:50:21.712Z,6.40
2022-11-20T08:51:21.731Z,6.00
2022-11-20T08:52:21.697Z,6.50
2022-11-20T08:53:21.645Z,7.50
2022-11-20T08:54:21.661Z,5.80
2022-11-20T08:55:21.641Z,6.30
2022-11-20T08:56:21.644Z,6.00
2022-11-20T08:57:21.601Z,7.10
2022-11-20T08:58:21.611Z,7.00
2022-11-20T09:00:21.592Z,6.80
2022-11-20T09:01:21.590Z,7.80
2022-11-20T09:02:21.571Z,5.80
2022-11-20T09:03:21.578Z,7.40
2022-11-20T09:04:21.550Z,7.10
2022-11-20T09:05:21.502Z,7.00
2022-11-20T09:06:21.648Z,6.00
2022-11-20T09:07:21.492Z,6.10
2022-11-20T09:08:21.482Z,7.00
2022-11-20T09:09:21.808Z,6.40
2022-11-20T09:10:25.153Z,6.50
2022-11-20T09:11:21.448Z,7.00
2022-11-20T09:12:21.426Z,7.80
2022-11-20T09:13:21.388Z,8.20
2022-11-20T09:14:21.428Z,8.30
2022-11-20T09:15:21.382Z,8.20
2022-11-20T09:16:21.368Z,7.00
2022-11-20T09:17:21.356Z,7.00
2022-11-20T09:18:21.366Z,6.50
2022-11-20T09:19:40.647Z,6.90
2022-11-20T09:20:21.445Z,6.60
2022-11-20T09:21:21.353Z,6.20
2022-11-20T09:22:21.312Z,5.40
2022-11-20T09:23:21.286Z,5.90
2022-11-20T09:24:21.269Z,6.70
2022-11-20T09:25:21.296Z,6.20
2022-11-20T09:26:21.248Z,6.70
2022-11-20T09:27:21.218Z,5.20
2022-11-20T09:28:21.246Z,6.10
2022-11-20T09:29:21.355Z,6.70
2022-11-20T09:30:21.251Z,6.20
2022-11-20T09:31:21.154Z,6.40
2022-11-20T09:32:21.192Z,6.40
2022-11-20T09:33:21.180Z,5.60
2022-11-20T09:34:21.143Z,6.00
2022-11-20T09:35:21.121Z,6.40
2022-11-20T09:36:21.137Z,6.10
2022-11-20T09:37:21.079Z,6.20
2022-11-20T09:38:21.145Z,5.40
2022-11-20T09:39:21.523Z,5.80
2022-11-20T09:40:21.072Z,5.60
2022-11-20T09:41:21.028Z,8.00
2022-11-20T09:42:21.050Z,6.90
2022-11-20T09:43:21.017Z,6.90
2022-11-20T09:44:21.061Z,6.10
2022-11-20T09:45:20.975Z,6.70
2022-11-20T09:46:20.990Z,15.70
2022-11-20T09:47:20.956Z,10.10
2022-11-20T09:48:21.046Z,6.00
2022-11-20T09:49:21.435Z,6.50
2022-11-20T09:50:20.946Z,6.20
2022-11-20T09:51:20.910Z,5.80
2022-11-20T09:52:20.924Z,6.10
2022-11-20T09:53:20.937Z,5.90
2022-11-20T09:54:20.890Z,6.10
2022-11-20T09:55:20.889Z,5.80
2022-11-20T09:56:22.460Z,5.80
2022-11-20T09:57:20.833Z,6.60
2022-11-20T09:58:20.851Z,6.20
2022-11-20T09:59:21.211Z,5.80
2022-11-20T10:00:20.803Z,7.00
2022-11-20T10:01:20.888Z,6.20
2022-11-20T10:02:20.775Z,5.40
2022-11-20T10:03:20.936Z,5.30
2022-11-20T10:04:20.804Z,5.70
2022-11-20T10:05:20.732Z,5.20
2022-11-20T10:06:20.727Z,5.90
2022-11-20T10:07:36.268Z,6.20
2022-11-20T10:08:20.759Z,5.50
2022-11-20T10:09:21.028Z,5.90
2022-11-20T10:10:20.689Z,6.20
2022-11-20T10:11:20.711Z,5.90
2022-11-20T10:12:20.645Z,6.10
2022-11-20T10:13:20.671Z,6.10
2022-11-20T10:14:20.680Z,6.60
2022-11-20T10:15:20.603Z,6.10
2022-11-20T10:16:20.608Z,5.20
2022-11-20T10:17:20.596Z,5.60
2022-11-20T10:18:20.604Z,6.40
2022-11-20T10:19:20.826Z,5.40
2022-11-20T10:20:20.558Z,5.10
2022-11-20T10:21:20.558Z,5.10
2022-11-20T10:22:20.588Z,6.70
2022-11-20T10:23:25.570Z,14.80
2022-11-20T10:24:20.515Z,16.70
2022-11-20T10:25:20.473Z,7.20
2022-11-20T10:26:20.497Z,5.90
2022-11-20T10:27:20.435Z,5.30
2022-11-20T10:28:20.486Z,5.10
2022-11-20T10:29:20.427Z,4.90
2022-11-20T10:30:20.416Z,4.60
2022-11-20T10:31:20.475Z,4.60
2022-11-20T10:32:20.401Z,4.50
2022-11-20T10:33:20.358Z,4.80
2022-11-20T10:34:22.922Z,8.10
2022-11-20T10:35:20.338Z,6.90
2022-11-20T10:36:20.366Z,5.80
2022-11-20T10:37:20.331Z,6.40
2022-11-20T10:38:20.310Z,5.90
2022-11-20T10:39:20.472Z,5.30
2022-11-20T10:40:20.346Z,5.60
2022-11-20T10:41:20.394Z,4.80
2022-11-20T10:42:20.281Z,4.50
2022-11-20T10:43:20.225Z,4.50
2022-11-20T10:44:20.659Z,4.80
2022-11-20T10:45:20.207Z,4.50
2022-11-20T10:46:20.211Z,4.50
2022-11-20T10:47:20.237Z,4.80
2022-11-20T10:48:20.208Z,4.50
2022-11-20T10:49:20.506Z,4.20
2022-11-20T10:50:22.497Z,4.00
2022-11-20T10:51:20.228Z,4.00
2022-11-20T10:52:20.191Z,10.90
2022-11-20T10:53:20.129Z,10.10
2022-11-20T10:54:20.111Z,7.00
2022-11-20T10:55:20.068Z,5.80
2022-11-20T10:56:20.093Z,5.60
2022-11-20T10:57:20.104Z,4.40
2022-11-20T10:58:20.059Z,3.80
2022-11-20T10:59:20.443Z,4.10
2022-11-20T11:00:20.012Z,4.40
2022-11-20T11:01:20.186Z,3.40
2022-11-20T11:02:20.036Z,4.00
2022-11-20T11:03:20.022Z,3.40
2022-11-20T11:04:19.979Z,4.90
2022-11-20T11:05:19.988Z,3.30
2022-11-20T11:06:19.946Z,3.40
2022-11-20T11:07:20.020Z,3.30
2022-11-20T11:08:19.924Z,3.70
2022-11-20T11:09:20.436Z,3.70
2022-11-20T11:10:19.879Z,3.30
2022-11-20T11:11:19.924Z,2.70
2022-11-20T11:12:19.855Z,2.80
2022-11-20T11:13:19.876Z,3.20
2022-11-20T11:14:19.831Z,3.80
2022-11-20T11:15:19.854Z,3.10
2022-11-20T11:16:19.841Z,3.40
2022-11-20T11:17:19.870Z,3.00
2022-11-20T11:18:19.802Z,3.00
2022-11-20T11:19:19.894Z,3.20
2022-11-20T11:20:19.760Z,2.50
2022-11-20T11:21:19.806Z,2.50
2022-11-20T11:22:19.722Z,2.60
2022-11-20T11:23:19.736Z,6.10
2022-11-20T11:24:41.001Z,3.20
2022-11-20T11:25:19.728Z,3.70
2022-11-20T11:26:19.675Z,3.70
2022-11-20T11:27:19.680Z,3.00
2022-11-20T11:28:19.664Z,2.60
2022-11-20T11:29:19.744Z,2.50
2022-11-20T11:30:19.652Z,3.30
2022-11-20T11:31:19.636Z,3.20
2022-11-20T11:32:19.604Z,3.40
2022-11-20T11:33:19.604Z,2.90
2022-11-20T11:34:19.604Z,3.60
2022-11-20T11:35:19.575Z,4.30
2022-11-20T11:36:19.542Z,4.10
2022-11-20T11:37:19.559Z,11.90
2022-11-20T11:38:19.532Z,4.70
2022-11-20T11:39:19.542Z,3.40
2022-11-20T11:40:24.230Z,2.90
2022-11-20T11:41:19.505Z,2.80
2022-11-20T11:42:19.479Z,2.90
2022-11-20T11:43:19.506Z,2.60
2022-11-20T11:44:19.444Z,2.70
2022-11-20T11:45:19.467Z,3.00
2022-11-20T11:46:19.421Z,2.90
2022-11-20T11:47:19.450Z,2.70
2022-11-20T11:48:19.428Z,2.70
2022-11-20T11:49:19.359Z,3.20
2022-11-20T11:50:19.440Z,2.60
2022-11-20T11:51:19.363Z,3.20
2022-11-20T11:52:19.359Z,2.90
2022-11-20T11:53:19.347Z,3.10
2022-11-20T11:54:19.343Z,2.90
2022-11-20T11:55:19.280Z,3.10
2022-11-20T11:56:19.327Z,3.20
2022-11-20T11:57:19.271Z,4.60
2022-11-20T11:58:19.310Z,2.20
2022-11-20T11:59:19.235Z,2.60
2022-11-20T12:00:19.291Z,2.20
2022-11-20T12:01:19.218Z,2.30
2022-11-20T12:02:19.468Z,2.00
2022-11-20T12:03:19.180Z,2.40
2022-11-20T12:04:19.235Z,4.00
2022-11-20T12:05:19.201Z,2.80
2022-11-20T12:06:19.165Z,1.90
2022-11-20T12:07:44.811Z,2.50
2022-11-20T12:08:19.195Z,1.70
2022-11-20T12:09:19.109Z,1.90
2022-11-20T12:10:19.123Z,2.20
2022-11-20T12:11:19.144Z,2.00
2022-11-20T12:12:19.107Z,1.70
2022-11-20T12:13:19.071Z,1.70
2022-11-20T12:14:19.059Z,2.10
2022-11-20T12:15:19.025Z,1.70
2022-11-20T12:16:19.037Z,1.40
2022-11-20T12:17:19.026Z,1.60
2022-11-20T12:18:19.023Z,1.80
2022-11-20T12:19:18.985Z,2.00
2022-11-20T12:20:19.003Z,1.90
2022-11-20T12:21:18.977Z,1.90
2022-11-20T12:22:18.964Z,2.30
2022-11-20T12:23:18.955Z,1.80
2022-11-20T12:24:18.946Z,1.70
2022-11-20T12:25:18.913Z,1.70
2022-11-20T12:26:18.938Z,1.70
2022-11-20T12:27:18.864Z,1.30
2022-11-20T12:28:18.898Z,2.00
2022-11-20T12:29:18.853Z,1.50
2022-11-20T12:30:18.865Z,1.40
2022-11-20T12:31:18.895Z,1.30
2022-11-20T12:32:18.826Z,1.50
2022-11-20T12:33:18.829Z,1.70
2022-11-20T12:34:18.805Z,1.60
2022-11-20T12:35:18.764Z,1.60
2022-11-20T12:36:18.781Z,1.30
2022-11-20T12:37:18.779Z,1.60
2022-11-20T12:38:18.762Z,1.50
2022-11-20T12:39:18.730Z,1.20
2022-11-20T12:40:19.259Z,1.80
2022-11-20T12:41:18.694Z,1.50
2022-11-20T12:42:18.711Z,1.30
2022-11-20T12:43:18.684Z,1.40
2022-11-20T12:44:18.670Z,1.80
2022-11-20T12:45:18.644Z,1.70
2022-11-20T12:46:18.642Z,1.60
2022-11-20T12:47:18.608Z,1.90
2022-11-20T12:48:18.688Z,1.90
2022-11-20T12:49:18.579Z,3.00
2022-11-20T12:50:18.597Z,1.90
2022-11-20T12:51:18.559Z,1.80
2022-11-20T12:52:18.570Z,1.30
2022-11-20T12:53:18.558Z,1.50
2022-11-20T12:54:18.546Z,1.40
2022-11-20T12:55:18.525Z,1.50
2022-11-20T12:56:18.536Z,1.80
2022-11-20T12:57:18.491Z,2.10
2022-11-20T12:58:18.519Z,2.30
2022-11-20T12:59:18.454Z,1.80
2022-11-20T13:00:18.491Z,2.30
2022-11-20T13:01:18.482Z,2.00
2022-11-20T13:02:18.462Z,1.70
2022-11-20T13:03:18.401Z,1.50
2022-11-20T13:04:18.422Z,1.70
2022-11-20T13:05:18.399Z,1.60
2022-11-20T13:06:18.424Z,1.50
2022-11-20T13:07:18.407Z,1.50
2022-11-20T13:08:18.373Z,1.30
2022-11-20T13:09:18.328Z,1.20
2022-11-20T13:10:18.350Z,1.20
2022-11-20T13:11:18.313Z,1.20
2022-11-20T13:12:18.301Z,1.00
2022-11-20T13:13:18.273Z,1.30
2022-11-20T13:14:18.308Z,1.10
2022-11-20T13:15:18.275Z,1.00